createdAt,value
2022-12-18T00:01:34.096Z,101885.88
2022-12-18T00:04:03.106Z,101885.06
2022-12-18T00:06:30.753Z,101883.34
2022-12-18T00:09:04.357Z,101877.28
2022-12-18T00:11:38.358Z,101886.03
2022-12-18T00:14:05.006Z,101871.28
2022-12-18T00:16:38.083Z,101877.38
2022-12-18T00:19:05.787Z,101882.66
2022-12-18T00:21:33.814Z,101882.66
2022-12-18T00:24:01.289Z,101883.63
2022-12-18T00:26:57.561Z,101879.28
2022-12-18T00:29:27.281Z,101875.81
2022-12-18T00:31:53.944Z,101868.88
2022-12-18T00:34:29.253Z,101874.09
2022-12-18T00:37:04.365Z,101866.28
2022-12-18T00:39:31.001Z,101864.53
2022-12-18T00:42:22.863Z,101863.75
2022-12-18T00:44:49.472Z,101862.00
2022-12-18T00:47:18.950Z,101852.47
2022-12-18T00:49:46.991Z,101862.91
2022-12-18T00:52:13.658Z,101857.75
2022-12-18T00:54:40.281Z,101862.97
2022-12-18T00:57:06.884Z,101849.06
2022-12-18T00:59:33.514Z,101874.34
2022-12-18T01:02:00.271Z,101870.00
2022-12-18T01:04:27.028Z,101872.69
2022-12-18T01:06:53.697Z,101889.22
2022-12-18T01:09:20.323Z,101883.16
2022-12-18T01:11:49.862Z,101893.59
2022-12-18T01:14:16.981Z,101895.38
2022-12-18T01:16:43.621Z,101880.56
2022-12-18T01:19:10.518Z,101886.69
2022-12-18T01:21:37.291Z,101894.56
2022-12-18T01:24:07.081Z,101883.31
2022-12-18T01:26:40.060Z,101876.34
2022-12-18T01:29:09.542Z,101878.97
2022-12-18T01:31:36.390Z,101877.28
2022-12-18T01:34:06.986Z,101871.22
2022-12-18T01:36:36.994Z,101866.09
2022-12-18T01:39:10.684Z,101864.38
2022-12-18T01:41:56.098Z,101860.06
2022-12-18T01:44:50.759Z,101853.16
2022-12-18T01:47:23.423Z,101855.84
2022-12-18T01:49:50.470Z,101855.84
2022-12-18T01:52:18.334Z,101852.38
2022-12-18T01:54:46.392Z,101852.38
2022-12-18T01:57:13.143Z,101855.94
2022-12-18T01:59:42.104Z,101857.69
2022-12-18T02:02:09.544Z,101868.19
2022-12-18T02:04:36.464Z,101856.91
2022-12-18T02:07:13.155Z,101860.34
2022-12-18T02:10:03.785Z,101858.63
2022-12-18T02:13:01.320Z,101851.69
2022-12-18T02:16:08.037Z,101856.91
2022-12-18T02:18:41.643Z,101849.97
2022-12-18T02:21:27.141Z,101858.72
2022-12-18T02:24:36.545Z,101847.38
2022-12-18T02:27:07.095Z,101855.19
2022-12-18T02:29:45.698Z,101858.72
2022-12-18T02:32:17.741Z,101850.91
2022-12-18T02:34:47.977Z,101844.81
2022-12-18T02:37:19.062Z,101852.66
2022-12-18T02:39:49.270Z,101864.00
2022-12-18T02:42:17.414Z,101845.78
2022-12-18T02:44:49.432Z,101855.34
2022-12-18T02:47:20.401Z,101834.47
2022-12-18T02:49:53.081Z,101837.09
2022-12-18T02:52:31.695Z,101825.78
2022-12-18T02:55:35.874Z,101840.56
2022-12-18T02:58:17.657Z,101838.81
2022-12-18T03:00:54.214Z,101839.63
2022-12-18T03:03:31.151Z,101834.38
2022-12-18T03:06:05.193Z,101833.50
2022-12-18T03:08:46.147Z,101826.56
2022-12-18T03:11:14.502Z,101819.59
2022-12-18T03:13:48.897Z,101819.59
2022-12-18T03:16:20.626Z,101820.47
2022-12-18T03:18:55.773Z,101823.06
2022-12-18T03:21:31.738Z,101814.31
2022-12-18T03:23:58.373Z,101812.56
2022-12-18T03:26:28.118Z,101812.56
2022-12-18T03:29:01.006Z,101812.56
2022-12-18T03:31:31.534Z,101811.72
2022-12-18T03:34:05.973Z,101813.41
2022-12-18T03:36:33.112Z,101809.97
2022-12-18T03:39:00.158Z,101823.84
2022-12-18T03:41:34.730Z,101819.44
2022-12-18T03:44:35.386Z,101813.41
2022-12-18T03:47:15.886Z,101812.50
2022-12-18T03:50:12.606Z,101806.34
2022-12-18T03:52:47.444Z,101807.19
2022-12-18T03:55:14.274Z,101818.47
2022-12-18T03:57:43.442Z,101815.81
2022-12-18T04:00:14.096Z,101808.91
2022-12-18T04:02:49.104Z,101812.31
2022-12-18T04:05:16.941Z,101814.94
2022-12-18T04:07:45.814Z,101809.63
2022-12-18T04:10:14.056Z,101818.41
2022-12-18T04:12:40.750Z,101819.25
2022-12-18T04:15:10.217Z,101812.25
2022-12-18T04:17:36.942Z,101810.50
2022-12-18T04:20:04.260Z,101807.03
2022-12-18T04:22:30.862Z,101814.84
2022-12-18T04:24:57.512Z,101814.81
2022-12-18T04:27:24.121Z,101825.25
2022-12-18T04:29:50.862Z,101824.38
2022-12-18T04:32:17.483Z,101816.56
2022-12-18T04:34:44.137Z,101815.69
2022-12-18T04:37:10.886Z,101815.72
2022-12-18T04:39:37.514Z,101808.75
2022-12-18T04:42:04.266Z,101804.41
2022-12-18T04:44:30.906Z,101793.09
2022-12-18T04:46:57.882Z,101802.66
2022-12-18T04:49:24.609Z,101801.75
2022-12-18T04:51:51.279Z,101793.00
2022-12-18T04:54:18.026Z,101795.63
2022-12-18T04:56:44.660Z,101785.19
2022-12-18T04:59:11.268Z,101772.16
2022-12-18T05:01:37.964Z,101775.63
2022-12-18T05:04:04.956Z,101778.16
2022-12-18T05:06:31.676Z,101767.72
2022-12-18T05:08:58.716Z,101774.63
2022-12-18T05:11:25.414Z,101770.28
2022-12-18T05:13:52.073Z,101764.16
2022-12-18T05:16:18.697Z,101770.25
2022-12-18T05:18:46.509Z,101765.03
2022-12-18T05:21:13.194Z,101764.19
2022-12-18T05:23:40.195Z,101763.38
2022-12-18T05:26:08.894Z,101766.00
2022-12-18T05:28:36.846Z,101766.00
2022-12-18T05:31:05.379Z,101752.97
2022-12-18T05:33:35.296Z,101767.75
2022-12-18T05:36:03.723Z,101766.00
2022-12-18T05:38:32.055Z,101752.16
2022-12-18T05:41:01.918Z,101746.09
2022-12-18T05:43:29.224Z,101745.31
2022-12-18T05:45:55.869Z,101758.34
2022-12-18T05:48:22.976Z,101745.38
2022-12-18T05:50:51.145Z,101737.56
2022-12-18T05:53:20.416Z,101741.94
2022-12-18T05:55:47.863Z,101751.53
2022-12-18T05:58:15.669Z,101742.00
2022-12-18T06:00:45.072Z,101748.16
2022-12-18T06:03:13.246Z,101752.53
2022-12-18T06:05:45.892Z,101744.75
2022-12-18T06:08:14.272Z,101737.84
2022-12-18T06:10:41.987Z,101737.00
2022-12-18T06:13:08.758Z,101730.94
2022-12-18T06:15:37.770Z,101738.75
2022-12-18T06:18:04.665Z,101725.72
2022-12-18T06:20:33.663Z,101733.59
2022-12-18T06:23:01.273Z,101729.25
2022-12-18T06:25:29.756Z,101724.94
2022-12-18T06:27:59.700Z,101723.16
2022-12-18T06:30:27.182Z,101724.88
2022-12-18T06:32:56.531Z,101724.06
2022-12-18T06:35:24.108Z,101718.84
2022-12-18T06:37:50.744Z,101716.22
2022-12-18T06:40:23.318Z,101717.03
2022-12-18T06:42:51.072Z,101719.72
2022-12-18T06:45:17.785Z,101730.16
2022-12-18T06:47:44.816Z,101727.56
2022-12-18T06:50:12.957Z,101726.72
2022-12-18T06:52:41.278Z,101730.22
2022-12-18T06:55:12.095Z,101731.97
2022-12-18T06:57:39.667Z,101731.97
2022-12-18T07:00:07.227Z,101729.38
2022-12-18T07:02:34.260Z,101731.97
2022-12-18T07:05:06.091Z,101735.44
2022-12-18T07:07:36.217Z,101738.06
2022-12-18T07:10:03.256Z,101741.53
2022-12-18T07:12:29.883Z,101744.13
2022-12-18T07:14:56.601Z,101746.75
2022-12-18T07:17:23.275Z,101739.78
2022-12-18T07:19:49.896Z,101737.09
2022-12-18T07:22:16.489Z,101745.81
2022-12-18T07:24:43.118Z,101745.81
2022-12-18T07:27:10.406Z,101744.97
2022-12-18T07:29:37.221Z,101730.16
2022-12-18T07:32:04.863Z,101735.38
2022-12-18T07:34:31.985Z,101731.94
2022-12-18T07:36:58.925Z,101741.53
2022-12-18T07:39:25.544Z,101730.22
2022-12-18T07:42:10.319Z,101736.38
2022-12-18T07:44:37.698Z,101735.53
2022-12-18T07:47:09.015Z,101731.19
2022-12-18T07:49:38.327Z,101728.56
2022-12-18T07:52:05.041Z,101736.41
2022-12-18T07:54:31.666Z,101739.00
2022-12-18T07:56:58.345Z,101738.19
2022-12-18T07:59:25.263Z,101750.38
2022-12-18T08:01:51.955Z,101754.81
2022-12-18T08:04:18.760Z,101749.59
2022-12-18T08:06:48.079Z,101750.53
2022-12-18T08:09:15.232Z,101747.13
2022-12-18T08:11:42.106Z,101738.50
2022-12-18T08:14:08.834Z,101728.94
2022-12-18T08:16:35.606Z,101724.59
2022-12-18T08:19:02.356Z,101722.06
2022-12-18T08:21:31.575Z,101711.69
2022-12-18T08:24:00.515Z,101714.38
2022-12-18T08:26:29.849Z,101710.09
2022-12-18T08:28:58.129Z,101716.25
2022-12-18T08:31:28.846Z,101720.69
2022-12-18T08:33:56.509Z,101716.34
2022-12-18T08:36:27.509Z,101725.97
2022-12-18T08:38:54.688Z,101714.81
2022-12-18T08:41:21.830Z,101714.88
2022-12-18T08:44:07.115Z,101717.53
2022-12-18T08:46:38.917Z,101715.00
2022-12-18T08:49:09.108Z,101715.00
2022-12-18T08:51:38.249Z,101712.41
2022-12-18T08:54:06.388Z,101721.19
2022-12-18T08:56:40.218Z,101716.09
2022-12-18T08:59:19.181Z,101705.66
2022-12-18T09:01:47.510Z,101708.38
2022-12-18T09:04:15.139Z,101711.06
2022-12-18T09:06:42.103Z,101709.38
2022-12-18T09:09:08.840Z,101709.41
2022-12-18T09:11:35.546Z,101708.59
2022-12-18T09:14:03.005Z,101698.22
2022-12-18T09:16:32.486Z,101706.09
2022-12-18T09:19:00.871Z,101712.25
2022-12-18T09:21:30.027Z,101697.47
2022-12-18T09:23:57.439Z,101693.16
2022-12-18T09:26:24.988Z,101685.34
2022-12-18T09:28:52.153Z,101685.41
2022-12-18T09:31:21.847Z,101686.28
2022-12-18T09:33:48.479Z,101684.56
2022-12-18T09:36:21.880Z,101677.63
2022-12-18T09:38:48.571Z,101661.94
2022-12-18T09:41:39.691Z,101653.34
2022-12-18T09:44:24.613Z,101658.56
2022-12-18T09:47:10.862Z,101656.88
2022-12-18T09:49:45.292Z,101660.41
2022-12-18T09:52:25.126Z,101647.38
2022-12-18T09:55:06.514Z,101631.72
2022-12-18T09:57:36.894Z,101644.84
2022-12-18T10:00:29.982Z,101630.94
2022-12-18T10:03:15.601Z,101634.41
2022-12-18T10:06:37.392Z,101635.34
2022-12-18T10:09:23.490Z,101629.25
2022-12-18T10:12:19.822Z,101637.13
2022-12-18T10:14:56.030Z,101618.84
2022-12-18T10:17:37.891Z,101612.78
2022-12-18T10:20:17.196Z,101614.59
2022-12-18T10:23:16.087Z,101617.25
2022-12-18T10:26:03.558Z,101608.56
2022-12-18T10:28:37.647Z,101613.84
2022-12-18T10:31:26.693Z,101623.44
2022-12-18T10:33:56.140Z,101609.56
2022-12-18T10:36:25.036Z,101620.06
2022-12-18T10:38:52.334Z,101614.84
2022-12-18T10:41:19.636Z,101624.47
2022-12-18T10:43:49.206Z,101618.41
2022-12-18T10:46:21.777Z,101615.84
2022-12-18T10:48:53.992Z,101625.50
2022-12-18T10:51:32.489Z,101636.00
2022-12-18T10:54:04.539Z,101627.28
2022-12-18T10:56:37.334Z,101622.06
2022-12-18T10:59:10.606Z,101620.31
2022-12-18T11:01:56.675Z,101621.22
2022-12-18T11:04:29.357Z,101622.13
2022-12-18T11:07:08.483Z,101619.53
2022-12-18T11:09:40.978Z,101623.88
2022-12-18T11:12:20.303Z,101636.09
2022-12-18T11:14:52.768Z,101637.00
2022-12-18T11:17:36.604Z,101637.88
2022-12-18T11:20:07.985Z,101638.75
2022-12-18T11:22:37.611Z,101622.19
2022-12-18T11:25:32.572Z,101612.59
2022-12-18T11:28:03.492Z,101607.38
2022-12-18T11:30:32.849Z,101610.84
2022-12-18T11:33:12.358Z,101610.03
2022-12-18T11:36:06.198Z,101618.75
2022-12-18T11:38:38.472Z,101622.25
2022-12-18T11:41:16.283Z,101622.25
2022-12-18T11:43:53.829Z,101618.78
2022-12-18T11:46:31.693Z,101615.25
2022-12-18T11:49:13.479Z,101611.84
2022-12-18T11:51:56.587Z,101617.09
2022-12-18T11:54:23.308Z,101605.75
2022-12-18T11:56:59.673Z,101607.50
2022-12-18T11:59:44.558Z,101600.56
2022-12-18T12:02:33.048Z,101609.28
2022-12-18T12:05:18.627Z,101611.06
2022-12-18T12:08:22.447Z,101605.84
2022-12-18T12:11:04.038Z,101604.13
2022-12-18T12:13:39.776Z,101605.00
2022-12-18T12:16:25.204Z,101605.06
2022-12-18T12:19:05.442Z,101615.53
2022-12-18T12:21:47.828Z,101612.06
2022-12-18T12:24:54.688Z,101633.00
2022-12-18T12:27:41.991Z,101631.25
2022-12-18T12:30:22.378Z,101620.84
2022-12-18T12:32:54.921Z,101619.09
2022-12-18T12:35:35.276Z,101617.38
2022-12-18T12:38:04.811Z,101623.53
2022-12-18T12:40:53.964Z,101617.47
2022-12-18T12:43:26.681Z,101619.22
2022-12-18T12:46:00.283Z,101621.88
2022-12-18T12:48:36.845Z,101623.66
2022-12-18T12:51:11.304Z,101627.16
2022-12-18T12:53:40.691Z,101625.44
2022-12-18T12:56:09.708Z,101620.22
2022-12-18T12:59:05.291Z,101628.09
2022-12-18T13:01:54.270Z,101630.75
2022-12-18T13:05:18.967Z,101622.91
2022-12-18T13:07:58.537Z,101623.81
2022-12-18T13:10:33.074Z,101613.38
2022-12-18T13:12:59.679Z,101614.25
2022-12-18T13:15:32.365Z,101613.41
2022-12-18T13:18:11.599Z,101608.16
2022-12-18T13:20:41.576Z,101589.88
2022-12-18T13:23:30.054Z,101596.00
2022-12-18T13:26:10.802Z,101595.16
2022-12-18T13:28:46.935Z,101608.25
2022-12-18T13:31:42.602Z,101614.31
2022-12-18T13:34:29.327Z,101608.22
2022-12-18T13:37:17.818Z,101612.56
2022-12-18T13:39:44.786Z,101616.06
2022-12-18T13:42:31.374Z,101616.94
2022-12-18T13:44:58.948Z,101605.59
2022-12-18T13:47:36.221Z,101606.47
2022-12-18T13:50:11.792Z,101597.75
2022-12-18T13:52:40.450Z,101613.53
2022-12-18T13:55:17.154Z,101615.25
2022-12-18T13:57:44.038Z,101620.53
2022-12-18T14:00:22.753Z,101616.19
2022-12-18T14:02:50.547Z,101611.84
2022-12-18T14:05:32.512Z,101612.75
2022-12-18T14:08:09.630Z,101614.50
2022-12-18T14:10:48.443Z,101627.63
2022-12-18T14:13:42.077Z,101617.19
2022-12-18T14:16:20.281Z,101621.53
2022-12-18T14:19:03.271Z,101625.91
2022-12-18T14:21:38.946Z,101626.78
2022-12-18T14:24:10.171Z,101628.56
2022-12-18T14:26:36.801Z,101620.69
2022-12-18T14:29:23.480Z,101617.19
2022-12-18T14:32:20.987Z,101623.28
2022-12-18T14:34:52.743Z,101632.88
2022-12-18T14:37:23.941Z,101643.31
2022-12-18T14:40:07.305Z,101632.78
2022-12-18T14:42:37.749Z,101622.28
2022-12-18T14:45:41.492Z,101632.75
2022-12-18T14:48:13.824Z,101629.28
2022-12-18T14:50:42.579Z,101630.13
2022-12-18T14:53:35.691Z,101637.97
2022-12-18T14:56:03.549Z,101630.94
2022-12-18T14:58:30.335Z,101643.16
2022-12-18T15:00:57.184Z,101647.56
2022-12-18T15:03:24.003Z,101650.19
2022-12-18T15:05:51.819Z,101635.34
2022-12-18T15:08:50.821Z,101648.47
2022-12-18T15:11:45.400Z,101656.38
2022-12-18T15:14:35.959Z,101663.31
2022-12-18T15:17:21.051Z,101658.16
2022-12-18T15:19:51.925Z,101660.81
2022-12-18T15:22:38.686Z,101666.91
2022-12-18T15:25:27.932Z,101682.69
2022-12-18T15:27:54.732Z,101675.72
2022-12-18T15:30:23.733Z,101670.47
2022-12-18T15:32:51.413Z,101668.78
2022-12-18T15:35:21.456Z,101672.25
2022-12-18T15:37:48.444Z,101681.91
2022-12-18T15:40:25.291Z,101687.13
2022-12-18T15:43:13.795Z,101688.84
2022-12-18T15:45:40.827Z,101692.34
2022-12-18T15:48:22.192Z,101700.22
2022-12-18T15:50:50.900Z,101696.72
2022-12-18T15:53:17.668Z,101701.97
2022-12-18T15:56:02.868Z,101703.75
2022-12-18T15:58:29.617Z,101716.84
2022-12-18T16:00:59.644Z,101711.63
2022-12-18T16:03:26.458Z,101716.00
2022-12-18T16:05:53.144Z,101722.16
2022-12-18T16:08:20.899Z,101721.28
2022-12-18T16:10:47.657Z,101731.81
2022-12-18T16:13:18.941Z,101730.97
2022-12-18T16:15:45.807Z,101744.06
2022-12-18T16:18:12.517Z,101742.34
2022-12-18T16:20:39.686Z,101748.47
2022-12-18T16:23:06.334Z,101749.34
2022-12-18T16:25:33.153Z,101751.13
2022-12-18T16:27:59.848Z,101764.25
2022-12-18T16:30:30.213Z,101768.56
2022-12-18T16:33:02.493Z,101781.69
2022-12-18T16:35:29.228Z,101776.47
2022-12-18T16:37:55.892Z,101769.47
2022-12-18T16:40:24.606Z,101769.47
2022-12-18T16:42:51.289Z,101767.69
2022-12-18T16:45:19.170Z,101769.44
2022-12-18T16:47:46.820Z,101777.31
2022-12-18T16:50:13.710Z,101777.31
2022-12-18T16:52:41.633Z,101790.41
2022-12-18T16:55:09.227Z,101794.75
2022-12-18T16:57:36.142Z,101806.97
2022-12-18T17:00:05.947Z,101805.22
2022-12-18T17:02:33.755Z,101809.59
2022-12-18T17:05:00.792Z,101807.81
2022-12-18T17:07:28.564Z,101806.91
2022-12-18T17:09:56.053Z,101817.34
2022-12-18T17:12:23.470Z,101805.16
2022-12-18T17:14:50.602Z,101809.50
2022-12-18T17:17:22.365Z,101820.00
2022-12-18T17:19:50.582Z,101814.75
2022-12-18T17:22:17.216Z,101819.97
2022-12-18T17:24:44.060Z,101818.22
2022-12-18T17:27:10.695Z,101816.44
2022-12-18T17:29:40.109Z,101835.66
2022-12-18T17:32:12.138Z,101830.41
2022-12-18T17:34:38.930Z,101848.75
2022-12-18T17:37:05.628Z,101848.75
2022-12-18T17:39:33.554Z,101859.28
2022-12-18T17:42:01.407Z,101869.75
2022-12-18T17:44:28.116Z,101864.50
2022-12-18T17:46:54.829Z,101862.75
2022-12-18T17:49:21.750Z,101857.53
2022-12-18T17:51:49.099Z,101868.88
2022-12-18T17:54:15.775Z,101870.63
2022-12-18T17:56:42.694Z,101867.09
2022-12-18T17:59:09.636Z,101864.44
2022-12-18T18:01:42.583Z,101869.66
2022-12-18T18:04:11.182Z,101870.53
2022-12-18T18:06:39.086Z,101870.50
2022-12-18T18:09:08.178Z,101863.50
2022-12-18T18:12:00.451Z,101867.88
2022-12-18T18:14:27.554Z,101867.88
2022-12-18T18:16:54.645Z,101878.34
2022-12-18T18:19:24.518Z,101878.34
2022-12-18T18:21:52.761Z,101877.53
2022-12-18T18:24:23.647Z,101888.00
2022-12-18T18:26:50.834Z,101883.59
2022-12-18T18:29:24.183Z,101886.22
2022-12-18T18:31:53.609Z,101887.06
2022-12-18T18:34:29.193Z,101903.63
2022-12-18T18:36:56.145Z,101903.63
2022-12-18T18:39:23.510Z,101922.84
2022-12-18T18:41:50.235Z,101924.56
2022-12-18T18:44:18.448Z,101926.28
2022-12-18T18:46:45.514Z,101935.88
2022-12-18T18:49:13.845Z,101932.34
2022-12-18T18:51:41.494Z,101936.72
2022-12-18T18:54:08.835Z,101933.19
2022-12-18T18:59:23.095Z,101937.50
2022-12-18T19:01:58.627Z,101938.31
2022-12-18T19:04:25.397Z,101957.47
2022-12-18T19:06:52.008Z,101957.41
2022-12-18T19:09:19.460Z,101968.81
2022-12-18T19:12:04.694Z,101974.06
2022-12-18T19:14:31.927Z,101978.38
2022-12-18T19:16:58.645Z,101979.25
2022-12-18T19:19:27.167Z,101980.94
2022-12-18T19:21:53.867Z,101983.53
2022-12-18T19:24:22.557Z,101990.53
2022-12-18T19:26:49.623Z,101999.25
2022-12-18T19:29:16.307Z,101995.72
2022-12-18T19:31:43.183Z,102006.19
2022-12-18T19:34:09.928Z,102004.41
2022-12-18T19:36:38.663Z,101998.28
2022-12-18T19:39:23.819Z,102001.72
2022-12-18T19:41:52.635Z,101997.34
2022-12-18T19:44:19.280Z,102011.31
2022-12-18T19:46:49.599Z,102011.25
2022-12-18T19:49:18.208Z,102007.75
2022-12-18T19:51:45.511Z,102019.03
2022-12-18T19:54:17.260Z,102025.16
2022-12-18T19:56:45.392Z,102030.34
2022-12-18T19:59:12.476Z,102032.13
2022-12-18T20:01:41.153Z,102039.97
2022-12-18T20:04:08.033Z,102041.69
2022-12-18T20:06:46.119Z,102037.31
2022-12-18T20:09:12.887Z,102042.50
2022-12-18T20:11:42.007Z,102048.59
2022-12-18T20:14:10.912Z,102052.94
2022-12-18T20:16:37.948Z,102062.50
2022-12-18T20:19:05.483Z,102055.50
2022-12-18T20:21:32.572Z,102055.44
2022-12-18T20:24:00.216Z,102058.94
2022-12-18T20:26:27.832Z,102061.53
2022-12-18T20:28:55.583Z,102065.88
2022-12-18T20:31:22.974Z,102078.94
2022-12-18T20:33:49.912Z,102080.63
2022-12-18T20:36:23.464Z,102075.38
2022-12-18T20:38:57.183Z,102069.22
2022-12-18T20:41:26.211Z,102075.31
2022-12-18T20:43:57.237Z,102089.16
2022-12-18T20:46:24.789Z,102103.97
2022-12-18T20:48:51.562Z,102103.03
2022-12-18T20:51:20.755Z,102100.41
2022-12-18T20:53:48.282Z,102102.97
2022-12-18T20:56:21.655Z,102109.94
2022-12-18T20:58:49.780Z,102110.75
2022-12-18T21:01:19.787Z,102115.09
2022-12-18T21:03:47.490Z,102120.25
2022-12-18T21:06:16.790Z,102114.97
2022-12-18T21:08:43.814Z,102122.81
2022-12-18T21:11:45.294Z,102130.59
2022-12-18T21:14:18.390Z,102132.31
2022-12-18T21:16:46.099Z,102132.25
2022-12-18T21:19:15.321Z,102134.81
2022-12-18T21:21:42.878Z,102140.91
2022-12-18T21:24:10.361Z,102139.97
2022-12-18T21:26:44.932Z,102145.13
2022-12-18T21:29:15.589Z,102149.41
2022-12-18T21:31:42.954Z,102147.56
2022-12-18T21:34:16.878Z,102149.22
2022-12-18T21:36:43.893Z,102159.59
2022-12-18T21:39:10.515Z,102158.66
2022-12-18T21:41:56.098Z,102159.53
2022-12-18T21:44:23.911Z,102161.22
2022-12-18T21:46:55.816Z,102161.22
2022-12-18T21:49:27.300Z,102169.03
2022-12-18T21:51:56.738Z,102173.38
2022-12-18T21:54:24.759Z,102173.31
2022-12-18T21:56:56.380Z,102182.00
2022-12-18T21:59:29.234Z,102181.09
2022-12-18T22:01:58.431Z,102198.44
2022-12-18T22:04:26.019Z,102197.53
2022-12-18T22:06:53.431Z,102199.28
2022-12-18T22:09:23.427Z,102200.16
2022-12-18T22:11:51.104Z,102203.50
2022-12-18T22:14:18.057Z,102210.38
2022-12-18T22:16:45.079Z,102209.41
2022-12-18T22:19:12.645Z,102211.94
2022-12-18T22:21:43.765Z,102211.00
2022-12-18T22:24:18.151Z,102213.50
2022-12-18T22:26:46.224Z,102209.88
2022-12-18T22:29:42.740Z,102214.22
2022-12-18T22:32:16.403Z,102221.19
2022-12-18T22:34:43.748Z,102219.41
2022-12-18T22:37:12.089Z,102214.97
2022-12-18T22:39:38.759Z,102221.06
2022-12-18T22:42:05.772Z,102222.75
2022-12-18T22:44:32.517Z,102226.22
2022-12-18T22:47:06.211Z,102227.00
2022-12-18T22:49:34.982Z,102233.03
2022-12-18T22:52:03.046Z,102235.59
2022-12-18T22:54:29.766Z,102230.31
2022-12-18T22:56:56.855Z,102233.75
2022-12-18T22:59:23.870Z,102245.09
2022-12-18T23:01:54.186Z,102252.00
2022-12-18T23:04:29.085Z,102253.66
2022-12-18T23:07:05.059Z,102248.38
2022-12-18T23:09:32.505Z,102257.88
2022-12-18T23:11:59.195Z,102256.03
2022-12-18T23:14:25.872Z,102249.88
2022-12-18T23:16:53.039Z,102252.47
2022-12-18T23:19:20.214Z,102257.69
2022-12-18T23:21:47.001Z,102250.66
2022-12-18T23:24:13.956Z,102252.41
2022-12-18T23:26:40.754Z,102259.31
2022-12-18T23:29:08.050Z,102252.31
2022-12-18T23:31:39.379Z,102253.22
2022-12-18T23:34:07.123Z,102265.38
2022-12-18T23:36:38.417Z,102254.03
2022-12-18T23:39:25.023Z,102267.09
2022-12-18T23:41:58.488Z,102260.97
2022-12-18T23:44:25.720Z,102266.13
2022-12-18T23:46:52.876Z,102260.91
2022-12-18T23:49:19.627Z,102254.81
2022-12-18T23:51:46.239Z,102243.38
2022-12-18T23:54:12.874Z,102250.38
2022-12-18T23:56:39.492Z,102243.38
2022-12-18T23:59:06.142Z,102247.75
